AirNav   Air Wisconsin Up To $57,000 Bonus
 
 1675 users online  

0IN4 Air Park Field
Woodburn, Indiana, USA

GOING TO WOODBURN?


FAA INFORMATION EFFECTIVE 09 SEPTEMBER 2021

Location

FAA Identifier: 0IN4
Lat/Long: 41-08-31.3700N 084-54-32.4200W
41-08.522833N 084-54.540333W
41.1420472,-84.9090056
(estimated)
Elevation: 750 ft. / 229 m (estimated)
Variation: 04W (1985)
From city: 4 miles NW of WOODBURN, IN
Time zone: UTC -4 (UTC -5 during Standard Time)
Zip code: 46774

Airport Operations

Airport use: Private use. Permission required prior to landing
Activation date: 12/1973
Control tower: no
ARTCC: CHICAGO CENTER
FSS: TERRE HAUTE FLIGHT SERVICE STATION
Attendance: UNATNDD
Wind indicator: yes
Segmented circle: no

Airport Communications

WX AWOS-3 at SMD (11 nm W): 124.55 (260-490-4030)
WX AWOS-3 at GWB (12 nm NW): 124.15 (260-925-8225)
WX ASOS at FWA (16 nm SW): PHONE 260-479-6621

Nearby radio navigation aids

VOR radial/distance  VOR name  Freq  Var
FWAr058/16.0FORT WAYNE VORTAC117.8006W
OLKr106/(27.3)WEBSTER LAKE VOR110.4003W

 
NDB name  Hdg/Dist  Freq  Var  ID
SHENK176/10.122705WGW --. .--

Airport Services

Runway Information

Runway 17/35

Dimensions: 2274 x 30 ft. / 693 x 9 m
Surface: asphalt
RUNWAY 17  RUNWAY 35
Latitude: 41-08.709167N41-08.337333N
Longitude: 084-54.570333W084-54.510500W
Elevation: 750.0 ft.745.0 ft.
Traffic pattern: leftleft
Runway heading: 177 magnetic, 173 true357 magnetic, 353 true
Obstructions: noneroad

Airport Ownership and Management from official FAA records

Ownership: Privately-owned
Owner: LOUIS DELAGRANGE
132 LINCOLN HWY WEST
NEW HAVEN, IN 46774
Phone 260-632-4811
Manager: LOUIS DELAGRANGE
132 LINCOLN HWY WEST
NEW HAVEN, IN 46774
Phone 260-632-4811

Airport Operational Statistics

Aircraft based on the field: 1
Single engine airplanes: 1
    

Additional Remarks

FOR CD CTC CHICAGO ARTCC AT 630-906-8921.

Instrument Procedures

There are no published instrument procedures at 0IN4.

Some nearby airports with instrument procedures:

KSMD - Smith Field Airport (11 nm W)
KGWB - De Kalb County Airport (12 nm NW)
KFWA - Fort Wayne International Airport (16 nm SW)
KVNW - Van Wert County Airport (22 nm SE)
KDFI - Defiance Memorial Airport (25 nm NE)
 
Loc | Ops | Rwys | IFR | FBO | Links
Com | Nav | Svcs | Stats | Notes
Area around 0IN4 (Air Park Field)
 
Road maps at: MapQuest Bing Google
 
Aerial photo
No photo
 
Sectional chart

 
Airport distance calculator
Flying to Air Park Field? Find the distance to fly.

From to 0IN4

Sunrise and sunset
Times for 21-Sep-2021
 Local
(UTC-4)
 Zulu
(UTC)
Morning civil twilight07:0011:00
Sunrise07:2711:27
Sunset19:3823:38
Evening civil twilight20:0600:06

Current date and time
Zulu (UTC)  21-Sep-2021 18:45:51
Local (UTC-4)  21-Sep-2021 14:45:51
 
METAR
KSMD 
11nm W 
211835Z AUTO 25005KT 9SM FEW022 OVC032 22/22 A3005 RMK A01
KGWB 
12nm NW 
211835Z AUTO 23004KT 5SM -RA SCT019 BKN023 OVC048 22/20 A3005 RMK AO2
KFWA 
17nm SW 
211654Z 19010KT 10SM FEW015 SCT021 BKN027 BKN250 25/19 A3005 RMK AO2 SLP172 T02500194
KVNW 
22nm SE 
211835Z AUTO 20007KT 10SM SCT025 BKN037 OVC045 25/18 A3005 RMK AO2
TAF
KFWA 
17nm SW 
211130Z 2112/2212 18012KT P6SM OVC015 FM211600 19012KT 6SM -SHRA BR VCTS OVC015CB FM212300 31008KT 6SM -SHRA BR OVC008 FM220300 35010G18KT 4SM -SHRA BR OVC008
NOTAMs
Click for the latest NOTAMs
NOTAMs are issued by the DoD/FAA and will open in a separate window not controlled by AirNav.

 

 
 

Would you like to see your business listed on this page?

 If your business provides an interesting product or service to pilots, flight crews, aircraft, or users of the Air Park Field, you should consider listing it here.  To start the listing process, click on the button below
 
Add a business
 

Other Pages about Air Park Field

Update a link
 
Copyright © AirNav, LLC. All rights reserved. Privacy Policy  Contact